Time;durP1;ratioP1;P1;durP2;ratioP2;P2;SDS_P1;SDS_P2;PMS_P1;PMS_P2;Temp;Humidity;BMP_temperature;BMP_pressure;BME280_temperature;BME280_humidity;BME280_pressure;Samples;Min_cycle;Max_cycle;Signal;HPM_P1;HPM_P2
2021/12/30 00:57:52;;;;;;;;;0.33;0.33;;;;;-149.69;100.00;58464.25;6327069;22;44791;-96
2021/12/30 07:46:09;;;;;;;;;5.00;2.00;;;;;-149.69;100.00;58464.25;6245413;22;46284;-93
2021/12/30 07:48:35;;;;;;;;;3.00;1.33;;;;;-149.69;100.00;58464.25;6241360;22;45262;-93
2021/12/30 07:51:01;;;;;;;;;10.67;4.67;;;;;-149.69;100.00;58464.25;6215454;22;45184;-96
2021/12/30 07:53:26;;;;;;;;;5.00;3.00;;;;;-149.69;100.00;58464.25;6216724;22;45294;-93
2021/12/30 07:55:51;;;;;;;;;4.33;2.00;;;;;-149.69;100.00;58464.25;6215956;22;47131;-94
2021/12/30 07:58:17;;;;;;;;;4.00;2.00;;;;;-149.69;100.00;58464.25;6219893;22;45208;-95
2021/12/30 08:00:42;;;;;;;;;2.67;1.67;;;;;-149.69;100.00;58464.25;6218032;22;45278;-94
2021/12/30 08:03:07;;;;;;;;;2.67;1.67;;;;;-149.69;100.00;58464.25;6215671;22;46543;-94
2021/12/30 08:05:33;;;;;;;;;4.67;2.33;;;;;-149.69;100.00;58464.25;6215408;22;49974;-93
2021/12/30 08:07:58;;;;;;;;;3.00;3.00;;;;;-149.69;100.00;58464.25;6214863;22;45224;-94
2021/12/30 08:10:24;;;;;;;;;5.67;2.67;;;;;-149.69;100.00;58464.25;6215345;22;45323;-93
2021/12/30 08:12:52;;;;;;;;;4.00;2.33;;;;;-149.69;100.00;58464.25;6215289;22;45687;-93
2021/12/30 08:15:18;;;;;;;;;3.33;2.33;;;;;-149.69;100.00;58464.25;6214950;22;47128;-94
2021/12/30 08:17:45;;;;;;;;;2.00;1.33;;;;;-149.69;100.00;58464.25;6214755;22;45760;-93
2021/12/30 08:20:11;;;;;;;;;4.00;4.00;;;;;-149.69;100.00;58464.25;6215245;22;45240;-94
2021/12/30 08:22:37;;;;;;;;;3.00;3.00;;;;;-149.69;100.00;58464.25;6214222;22;45617;-92
2021/12/30 08:25:04;;;;;;;;;6.67;5.00;;;;;-149.69;100.00;58464.25;6242211;22;46198;-94
2021/12/30 08:27:30;;;;;;;;;3.33;3.33;;;;;-149.69;100.00;58464.25;6213631;22;45754;-93
2021/12/30 08:29:55;;;;;;;;;5.33;3.33;;;;;-149.69;100.00;58464.25;6213757;22;45292;-91
2021/12/30 08:32:21;;;;;;;;;4.00;2.33;;;;;-149.69;100.00;58464.25;6213115;22;45241;-93
2021/12/30 08:34:47;;;;;;;;;6.67;4.00;;;;;-149.69;100.00;58464.25;6214143;22;47974;-93
2021/12/30 08:37:13;;;;;;;;;2.00;2.00;;;;;-149.69;100.00;58464.25;6213124;22;45798;-93
2021/12/30 08:39:40;;;;;;;;;9.00;3.33;;;;;-149.69;100.00;58464.25;6213858;22;45180;-92
2021/12/30 08:42:15;;;;;;;;;3.00;3.00;;;;;-149.69;100.00;58464.25;6213922;22;45219;-92
2021/12/30 08:44:40;;;;;;;;;6.00;3.00;;;;;-149.69;100.00;58464.25;6243255;22;45457;-92
2021/12/30 08:47:07;;;;;;;;;1.00;1.00;;;;;-149.69;100.00;58464.25;6213501;22;45795;-91
2021/12/30 08:52:06;;;;;;;;;4.00;3.00;;;;;-149.69;100.00;58464.25;6274489;22;45491;-95
2021/12/30 08:59:43;;;;;;;;;4.33;3.00;;;;;-149.69;100.00;58464.25;6273566;22;45151;-96
2021/12/30 09:17:47;;;;;;;;;5.67;2.00;;;;;-149.69;100.00;58464.25;6244389;22;45206;-95
2021/12/30 09:20:13;;;;;;;;;9.33;5.00;;;;;-149.69;100.00;58464.25;6244912;22;45065;-96
2021/12/30 09:22:41;;;;;;;;;4.67;2.33;;;;;-149.69;100.00;58464.25;6232011;22;44951;-96
2021/12/30 09:25:19;;;;;;;;;4.50;2.00;;;;;-149.69;100.00;58464.25;6206650;22;46978;31
2021/12/30 09:27:45;;;;;;;;;3.67;3.33;;;;;-149.69;100.00;58464.25;6253536;22;45331;-93
2021/12/30 09:30:12;;;;;;;;;5.00;5.00;;;;;-149.69;100.00;58464.25;6232546;22;45260;-93
2021/12/30 09:32:38;;;;;;;;;5.00;5.00;;;;;-149.69;100.00;58464.25;6241126;22;45345;-94
2021/12/30 09:35:04;;;;;;;;;4.33;3.00;;;;;-149.69;100.00;58464.25;6240387;22;46966;-95
2021/12/30 09:37:33;;;;;;;;;5.33;4.00;;;;;-149.69;100.00;58464.25;6244308;22;45628;-96
2021/12/30 09:39:59;;;;;;;;;3.67;3.00;;;;;-149.69;100.00;58464.25;6248328;22;45272;-96
2021/12/30 09:42:25;;;;;;;;;5.33;3.67;;;;;-149.69;100.00;58464.25;6238935;22;45278;-95
2021/12/30 09:44:51;;;;;;;;;7.00;3.00;;;;;-149.69;100.00;58464.25;6265793;22;48077;-95
2021/12/30 09:47:16;;;;;;;;;3.67;1.00;;;;;-149.69;100.00;58464.25;6239809;22;45340;-95
2021/12/30 09:49:42;;;;;;;;;2.00;2.00;;;;;-149.69;100.00;58464.25;6264773;22;45215;-95
2021/12/30 09:52:07;;;;;;;;;6.67;3.00;;;;;-149.69;100.00;58464.25;6266710;22;45289;-95
2021/12/30 09:54:32;;;;;;;;;5.00;3.00;;;;;-149.69;100.00;58464.25;6267389;22;47046;-90
2021/12/30 09:56:58;;;;;;;;;6.33;4.00;;;;;-149.69;100.00;58464.25;6241682;22;45327;-95
2021/12/30 09:59:25;;;;;;;;;3.67;2.00;;;;;-149.69;100.00;58464.25;6239519;22;45341;-96
2021/12/30 10:01:52;;;;;;;;;4.67;3.67;;;;;-149.69;100.00;58464.25;6238981;22;45371;-95
2021/12/30 10:04:18;;;;;;;;;4.00;2.33;;;;;-149.69;100.00;58464.25;6241069;22;45218;-95
2021/12/30 10:06:47;;;;;;;;;4.67;2.67;;;;;-149.69;100.00;58464.25;6239322;22;46009;-95
2021/12/30 10:09:15;;;;;;;;;6.00;3.00;;;;;-149.69;100.00;58464.25;6239588;22;45356;-95
2021/12/30 10:12:00;;;;;;;;;10.33;5.00;;;;;-149.69;100.00;58464.25;6239619;22;45649;-96
2021/12/30 10:14:32;;;;;;;;;3.67;3.00;;;;;-149.69;100.00;58464.25;6239936;22;48088;-96
2021/12/30 10:17:18;;;;;;;;;5.00;3.00;;;;;-149.69;100.00;58464.25;6238949;22;45643;-96
2021/12/30 10:19:44;;;;;;;;;6.67;4.33;;;;;-149.69;100.00;58464.25;6243018;22;45152;-95
2021/12/30 10:22:12;;;;;;;;;6.00;4.00;;;;;-149.69;100.00;58464.25;6264662;22;45311;-95
2021/12/30 10:24:37;;;;;;;;;4.00;2.33;;;;;-149.69;100.00;58464.25;6235712;22;47222;-95
2021/12/30 10:27:03;;;;;;;;;1.67;1.67;;;;;-149.69;100.00;58464.25;6238216;22;45419;-96
2021/12/30 10:29:40;;;;;;;;;6.33;2.00;;;;;-149.69;100.00;58464.25;6237921;22;45350;-95
2021/12/30 10:32:23;;;;;;;;;3.67;2.00;;;;;-149.69;100.00;58464.25;6237236;22;45223;-94
2021/12/30 10:35:07;;;;;;;;;2.33;1.00;;;;;-149.69;100.00;58464.25;6238482;22;47062;-94
2021/12/30 10:37:32;;;;;;;;;3.33;3.00;;;;;-149.69;100.00;58464.25;6238658;22;45319;-94
2021/12/30 10:39:58;;;;;;;;;3.33;2.67;;;;;-149.69;100.00;58464.25;6239911;22;45287;-95
2021/12/30 10:42:23;;;;;;;;;4.67;2.67;;;;;-149.69;100.00;58464.25;6238777;22;45321;-95
2021/12/30 10:44:50;;;;;;;;;4.00;3.00;;;;;-149.69;100.00;58464.25;6239460;22;47957;-94
2021/12/30 10:47:18;;;;;;;;;4.67;3.00;;;;;-149.69;100.00;58464.25;6238200;22;45780;-92
2021/12/30 10:49:57;;;;;;;;;3.33;3.33;;;;;-149.69;100.00;58464.25;6264902;22;45309;-95
2021/12/30 10:52:22;;;;;;;;;5.00;5.00;;;;;-149.69;100.00;58464.25;6239041;22;45345;-95
2021/12/30 10:54:48;;;;;;;;;6.00;3.00;;;;;-149.69;100.00;58464.25;6239148;22;48523;-94
2021/12/30 10:57:13;;;;;;;;;3.00;2.33;;;;;-149.69;100.00;58464.25;6264584;22;45618;-95
2021/12/30 10:59:42;;;;;;;;;6.00;3.00;;;;;-149.69;100.00;58464.25;6266400;22;45242;-94
2021/12/30 11:02:18;;;;;;;;;4.00;3.00;;;;;-149.69;100.00;58464.25;6237847;22;45504;-93
2021/12/30 11:04:46;;;;;;;;;1.67;1.67;;;;;-149.69;100.00;58464.25;6238302;22;47794;-94
2021/12/30 11:07:15;;;;;;;;;7.00;3.00;;;;;-149.69;100.00;58464.25;6237998;22;45338;-92
2021/12/30 11:09:48;;;;;;;;;3.00;3.00;;;;;-149.69;100.00;58464.25;6238355;22;45361;-96
2021/12/30 11:12:14;;;;;;;;;4.00;1.33;;;;;-149.69;100.00;58464.25;6237281;22;45695;-94
2021/12/30 11:14:40;;;;;;;;;4.00;2.33;;;;;-149.69;100.00;58464.25;6237781;22;47313;-91
2021/12/30 11:17:19;;;;;;;;;5.00;2.33;;;;;-149.69;100.00;58464.25;6237697;22;45344;-93
2021/12/30 11:19:48;;;;;;;;;2.00;2.00;;;;;-149.69;100.00;58464.25;6239714;22;45348;-95
2021/12/30 11:22:16;;;;;;;;;2.33;2.33;;;;;-149.69;100.00;58464.25;6238970;22;45540;-94
2021/12/30 11:24:43;;;;;;;;;4.67;3.00;;;;;-149.69;100.00;58464.25;6237406;22;47354;-93
2021/12/30 11:27:10;;;;;;;;;4.67;3.00;;;;;-149.69;100.00;58464.25;6236809;22;45473;-92
2021/12/30 11:29:37;;;;;;;;;3.00;2.67;;;;;-149.69;100.00;58464.25;6240889;22;45444;-94
2021/12/30 11:32:05;;;;;;;;;4.00;3.67;;;;;-149.69;100.00;58464.25;6241015;22;45537;-94
2021/12/30 11:34:31;;;;;;;;;2.00;2.00;;;;;-149.69;100.00;58464.25;6242899;22;47867;-96
2021/12/30 11:36:56;;;;;;;;;3.33;2.00;;;;;-149.69;100.00;58464.25;6242531;22;45313;-96
2021/12/30 11:39:24;;;;;;;;;2.67;2.67;;;;;-149.69;100.00;58464.25;6242477;22;45250;-94
2021/12/30 11:41:56;;;;;;;;;3.67;2.00;;;;;-149.69;100.00;58464.25;6249907;22;45477;-96
2021/12/30 11:44:36;;;;;;;;;3.00;2.00;;;;;-149.69;100.00;58464.25;6245731;22;48431;-94
2021/12/30 11:47:03;;;;;;;;;4.67;1.67;;;;;-149.69;100.00;58464.25;6247246;22;45273;-96
2021/12/30 11:50:04;;;;;;;;;2.67;2.00;;;;;-149.69;100.00;58464.25;6246212;22;45290;-96
2021/12/30 11:53:04;;;;;;;;;2.33;2.00;;;;;-149.69;100.00;58464.25;6211196;22;45541;-96
2021/12/30 11:55:49;;;;;;;;;5.00;2.00;;;;;-149.69;100.00;58464.25;6184789;22;48214;-94
2021/12/30 11:58:27;;;;;;;;;2.67;2.00;;;;;-149.69;100.00;58464.25;6179005;22;45874;-96
2021/12/30 12:00:57;;;;;;;;;3.67;2.00;;;;;-149.69;100.00;58464.25;6185843;22;45341;-96
2021/12/30 12:05:58;;;;;;;;;3.00;2.00;;;;;-149.69;100.00;58464.25;6248379;22;46364;-96
2021/12/30 12:11:16;;;;;;;;;3.00;2.00;;;;;-149.69;100.00;58464.25;6219200;22;45407;-96
2021/12/30 12:13:44;;;;;;;;;2.67;1.33;;;;;-149.69;100.00;58464.25;6210819;22;45410;-96
2021/12/30 12:16:10;;;;;;;;;4.67;3.00;;;;;-149.69;100.00;58464.25;6210378;22;45231;-93
2021/12/30 12:18:36;;;;;;;;;2.00;2.00;;;;;-149.69;100.00;58464.25;6219940;22;45195;-96
2021/12/30 12:21:05;;;;;;;;;3.00;3.00;;;;;-149.69;100.00;58464.25;6224631;22;45525;-96
2021/12/30 12:23:42;;;;;;;;;3.00;1.67;;;;;-149.69;100.00;58464.25;6226992;22;45441;-96
2021/12/30 12:26:10;;;;;;;;;2.33;2.33;;;;;-149.69;100.00;58464.25;6247292;22;46337;-96
2021/12/30 12:28:35;;;;;;;;;6.00;2.00;;;;;-149.69;100.00;58464.25;6253098;22;45319;-96
2021/12/30 12:31:02;;;;;;;;;3.00;3.00;;;;;-149.69;100.00;58464.25;6252711;22;45362;-96
2021/12/30 12:33:32;;;;;;;;;3.33;3.33;;;;;-149.69;100.00;58464.25;6237641;22;45419;-95
2021/12/30 12:35:59;;;;;;;;;4.00;4.00;;;;;-149.69;100.00;58464.25;6237898;22;47865;-95
2021/12/30 12:38:41;;;;;;;;;4.00;3.00;;;;;-149.69;100.00;58464.25;6238634;22;45444;-95
2021/12/30 12:41:27;;;;;;;;;3.33;3.33;;;;;-149.69;100.00;58464.25;6237868;22;45403;-95
2021/12/30 12:44:03;;;;;;;;;6.00;3.33;;;;;-149.69;100.00;58464.25;6236707;22;45561;-94
2021/12/30 12:46:46;;;;;;;;;3.00;3.00;;;;;-149.69;100.00;58464.25;6238412;22;47341;-94
2021/12/30 12:49:14;;;;;;;;;4.00;4.00;;;;;-149.69;100.00;58464.25;6240111;22;45339;-95
2021/12/30 12:51:54;;;;;;;;;3.33;1.67;;;;;-149.69;100.00;58464.25;6238922;22;45286;-92
2021/12/30 12:54:48;;;;;;;;;6.33;2.00;;;;;-149.69;100.00;58464.25;6238135;22;45716;-94
2021/12/30 12:57:19;;;;;;;;;3.00;2.00;;;;;-149.69;100.00;58464.25;6239149;22;45530;-94
2021/12/30 12:59:46;;;;;;;;;2.67;2.67;;;;;-149.69;100.00;58464.25;6239803;22;45321;-94
2021/12/30 13:02:14;;;;;;;;;3.67;2.00;;;;;-149.69;100.00;58464.25;6237428;22;45392;-95
2021/12/30 13:04:40;;;;;;;;;2.00;2.00;;;;;-149.69;100.00;58464.25;6237787;22;45294;-95
2021/12/30 13:07:11;;;;;;;;;5.00;4.00;;;;;-149.69;100.00;58464.25;6237046;22;47102;-95
2021/12/30 13:09:37;;;;;;;;;4.67;3.67;;;;;-149.69;100.00;58464.25;6237354;22;45278;-94
2021/12/30 13:12:05;;;;;;;;;5.00;3.67;;;;;-149.69;100.00;58464.25;6236640;22;45444;-94
2021/12/30 13:14:31;;;;;;;;;5.33;5.33;;;;;-149.69;100.00;58464.25;6237926;22;45255;-95
2021/12/30 13:17:05;;;;;;;;;4.33;3.33;;;;;-149.69;100.00;58464.25;6236684;22;47791;-94
2021/12/30 13:19:36;;;;;;;;;4.00;3.00;;;;;-149.69;100.00;58464.25;6238444;22;45310;-94
2021/12/30 13:22:07;;;;;;;;;5.33;3.00;;;;;-149.69;100.00;58464.25;6238443;22;45677;-94
2021/12/30 13:24:48;;;;;;;;;3.00;3.00;;;;;-149.69;100.00;58464.25;6237218;22;45420;-94
2021/12/30 13:27:13;;;;;;;;;3.67;2.67;;;;;-149.69;100.00;58464.25;6238347;22;45640;-94
2021/12/30 13:30:03;;;;;;;;;5.00;3.33;;;;;-149.69;100.00;58464.25;6238896;22;45900;-94
2021/12/30 13:32:31;;;;;;;;;1.67;1.67;;;;;-149.69;100.00;58464.25;6229273;22;45317;-95
2021/12/30 13:35:09;;;;;;;;;6.00;1.33;;;;;-149.69;100.00;58464.25;6240667;22;45315;-93
2021/12/30 13:37:45;;;;;;;;;6.00;3.00;;;;;-149.69;100.00;58464.25;6249582;22;45587;-96
2021/12/30 13:40:32;;;;;;;;;4.00;2.00;;;;;-149.69;100.00;58464.25;6247923;22;45337;-93
2021/12/30 13:42:57;;;;;;;;;3.00;1.33;;;;;-149.69;100.00;58464.25;6243367;22;45309;-90
2021/12/30 13:45:24;;;;;;;;;2.67;2.00;;;;;-149.69;100.00;58464.25;6243219;22;45369;-95
2021/12/30 13:47:51;;;;;;;;;4.00;4.00;;;;;-149.69;100.00;58464.25;6244127;22;48043;-93
2021/12/30 13:50:18;;;;;;;;;3.33;2.00;;;;;-149.69;100.00;58464.25;6247127;22;45305;-94
2021/12/30 13:52:46;;;;;;;;;2.00;2.00;;;;;-149.69;100.00;58464.25;6247186;22;45267;-95
2021/12/30 13:55:14;;;;;;;;;2.33;2.00;;;;;-149.69;100.00;58464.25;6250620;22;45559;-95
2021/12/30 13:57:41;;;;;;;;;3.00;3.00;;;;;-149.69;100.00;58464.25;6245344;22;48367;-93
2021/12/30 14:00:11;;;;;;;;;2.00;1.00;;;;;-149.69;100.00;58464.25;6247907;22;45310;-93
2021/12/30 14:02:36;;;;;;;;;2.67;2.00;;;;;-149.69;100.00;58464.25;6240601;22;45350;-91
2021/12/30 14:05:05;;;;;;;;;3.33;3.00;;;;;-149.69;100.00;58464.25;6238313;22;45431;-94
2021/12/30 14:07:43;;;;;;;;;4.00;2.00;;;;;-149.69;100.00;58464.25;6239582;22;47421;-93
2021/12/30 14:10:10;;;;;;;;;4.67;3.00;;;;;-149.69;100.00;58464.25;6239610;22;45383;-93
2021/12/30 14:12:36;;;;;;;;;3.33;3.33;;;;;-149.69;100.00;58464.25;6234559;22;45383;-94
2021/12/30 14:15:15;;;;;;;;;7.00;3.00;;;;;-149.69;100.00;58464.25;6238571;22;45516;-94
2021/12/30 14:17:45;;;;;;;;;3.67;3.67;;;;;-149.69;100.00;58464.25;6237682;22;48181;-94
2021/12/30 14:20:12;;;;;;;;;2.33;2.33;;;;;-149.69;100.00;58464.25;6238041;22;45392;-94
2021/12/30 14:22:42;;;;;;;;;3.33;3.00;;;;;-149.69;100.00;58464.25;6239975;22;45263;-93
2021/12/30 14:25:38;;;;;;;;;2.00;2.00;;;;;-149.69;100.00;58464.25;6237767;22;45551;-92
2021/12/30 14:28:28;;;;;;;;;3.67;2.00;;;;;-149.69;100.00;58464.25;6253052;22;45513;-92
2021/12/30 14:30:56;;;;;;;;;3.00;3.00;;;;;-149.69;100.00;58464.25;6235932;22;45619;-94
2021/12/30 14:33:26;;;;;;;;;3.00;2.00;;;;;-149.69;100.00;58464.25;6241326;22;45279;-93
2021/12/30 14:36:16;;;;;;;;;6.67;3.33;;;;;-149.69;100.00;58464.25;6241324;22;45322;-92
2021/12/30 14:38:43;;;;;;;;;2.00;2.00;;;;;-149.69;100.00;58464.25;6238523;22;45322;-93
2021/12/30 14:41:14;;;;;;;;;3.67;3.67;;;;;-149.69;100.00;58464.25;6244179;22;45973;-93
2021/12/30 14:44:01;;;;;;;;;2.33;2.00;;;;;-149.69;100.00;58464.25;6247271;22;45370;-92
2021/12/30 14:46:26;;;;;;;;;2.00;2.00;;;;;-149.69;100.00;58464.25;6243236;22;45340;-92
2021/12/30 14:49:00;;;;;;;;;2.00;2.00;;;;;-149.69;100.00;58464.25;6238901;22;48369;-91
2021/12/30 14:51:30;;;;;;;;;3.00;3.00;;;;;-149.69;100.00;58464.25;6240692;22;45278;-92
2021/12/30 14:53:57;;;;;;;;;3.67;2.00;;;;;-149.69;100.00;58464.25;6241122;22;45373;-91
2021/12/30 14:56:22;;;;;;;;;2.00;1.00;;;;;-149.69;100.00;58464.25;6236257;22;45436;-92
2021/12/30 14:58:47;;;;;;;;;2.00;2.00;;;;;-149.69;100.00;58464.25;6235360;22;48430;-92
2021/12/30 15:01:13;;;;;;;;;3.00;2.67;;;;;-149.69;100.00;58464.25;6238482;22;45329;-94
2021/12/30 15:03:38;;;;;;;;;1.00;1.00;;;;;-149.69;100.00;58464.25;6237611;22;45451;-91
2021/12/30 15:06:03;;;;;;;;;3.33;3.00;;;;;-149.69;100.00;58464.25;6239258;22;45561;-91
2021/12/30 15:08:29;;;;;;;;;1.67;1.67;;;;;-149.69;100.00;58464.25;6240924;22;45306;-92
2021/12/30 15:10:54;;;;;;;;;2.67;2.67;;;;;-149.69;100.00;58464.25;6250201;22;45341;-92
2021/12/30 15:13:19;;;;;;;;;4.33;3.00;;;;;-149.69;100.00;58464.25;6241537;22;45389;-91
2021/12/30 15:15:45;;;;;;;;;3.00;2.00;;;;;-149.69;100.00;58464.25;6236987;22;45646;-92
2021/12/30 15:18:11;;;;;;;;;2.00;2.00;;;;;-149.69;100.00;58464.25;6240236;22;45355;-92
2021/12/30 15:20:37;;;;;;;;;3.00;1.67;;;;;-149.69;100.00;58464.25;6238667;22;45399;-93
2021/12/30 15:23:04;;;;;;;;;2.67;2.00;;;;;-149.69;100.00;58464.25;6238694;22;45287;-92
2021/12/30 15:25:30;;;;;;;;;4.00;2.00;;;;;-149.69;100.00;58464.25;6236616;22;45468;-92
2021/12/30 15:27:57;;;;;;;;;2.00;2.00;;;;;-149.69;100.00;58464.25;6238457;22;48271;-92
2021/12/30 15:30:23;;;;;;;;;5.00;3.00;;;;;-149.69;100.00;58464.25;6240132;22;45184;-91
2021/12/30 15:32:55;;;;;;;;;3.67;2.67;;;;;-149.69;100.00;58464.25;6239320;22;45755;-90
2021/12/30 15:35:23;;;;;;;;;2.00;2.00;;;;;-149.69;100.00;58464.25;6239808;22;45698;-93
2021/12/30 15:37:51;;;;;;;;;4.67;3.00;;;;;-149.69;100.00;58464.25;6244096;22;46271;-92
2021/12/30 15:40:17;;;;;;;;;3.00;3.00;;;;;-149.69;100.00;58464.25;6242409;22;45344;-93
2021/12/30 15:42:44;;;;;;;;;2.00;2.00;;;;;-149.69;100.00;58464.25;6242734;22;45346;-93
2021/12/30 15:45:11;;;;;;;;;3.67;2.33;;;;;-149.69;100.00;58464.25;6241709;22;45687;-93
2021/12/30 15:47:37;;;;;;;;;2.00;2.00;;;;;-149.69;100.00;58464.25;6239722;22;47221;-91
2021/12/30 15:50:04;;;;;;;;;4.67;3.00;;;;;-149.69;100.00;58464.25;6240712;22;45293;-90
2021/12/30 15:52:29;;;;;;;;;3.33;3.33;;;;;-149.69;100.00;58464.25;6242063;22;45311;-92
2021/12/30 15:54:55;;;;;;;;;5.33;3.00;;;;;-149.69;100.00;58464.25;6238202;22;45559;-92
2021/12/30 15:57:20;;;;;;;;;3.00;3.00;;;;;-149.69;100.00;58464.25;6244774;22;46700;-92
2021/12/30 15:59:46;;;;;;;;;6.00;3.00;;;;;-149.69;100.00;58464.25;6243206;22;45325;-88
2021/12/30 16:02:12;;;;;;;;;4.33;3.33;;;;;-149.69;100.00;58464.25;6240835;22;45464;-89
2021/12/30 16:04:37;;;;;;;;;5.33;3.00;;;;;-149.69;100.00;58464.25;6242199;22;45339;-92
2021/12/30 16:07:04;;;;;;;;;6.00;3.00;;;;;-149.69;100.00;58464.25;6237350;22;47080;-93
2021/12/30 16:09:30;;;;;;;;;4.33;4.00;;;;;-149.69;100.00;58464.25;6244116;22;45361;-91
2021/12/30 16:11:58;;;;;;;;;4.00;3.67;;;;;-149.69;100.00;58464.25;6242547;22;45401;-91
2021/12/30 16:14:23;;;;;;;;;4.33;3.67;;;;;-149.69;100.00;58464.25;6240236;22;45559;-91
2021/12/30 16:16:49;;;;;;;;;3.67;3.00;;;;;-149.69;100.00;58464.25;6238378;22;47111;-91
2021/12/30 16:19:14;;;;;;;;;4.00;4.00;;;;;-149.69;100.00;58464.25;6241540;22;45260;-92
2021/12/30 16:21:41;;;;;;;;;3.00;3.00;;;;;-149.69;100.00;58464.25;6239739;22;45313;-92
2021/12/30 16:24:07;;;;;;;;;6.33;3.00;;;;;-149.69;100.00;58464.25;6236442;22;45396;-91
2021/12/30 16:26:33;;;;;;;;;5.00;4.00;;;;;-149.69;100.00;58464.25;6237352;22;47199;-91
2021/12/30 16:28:59;;;;;;;;;4.00;3.33;;;;;-149.69;100.00;58464.25;6239072;22;45321;-91
2021/12/30 16:31:26;;;;;;;;;5.00;4.00;;;;;-149.69;100.00;58464.25;6239332;22;45381;-91
2021/12/30 16:33:51;;;;;;;;;3.00;3.00;;;;;-149.69;100.00;58464.25;6244933;22;45349;-91
2021/12/30 16:36:17;;;;;;;;;3.33;3.33;;;;;-149.69;100.00;58464.25;6239840;22;47122;-90
2021/12/30 16:38:43;;;;;;;;;4.67;3.00;;;;;-149.69;100.00;58464.25;6239654;22;45211;-90
2021/12/30 16:41:09;;;;;;;;;5.33;3.00;;;;;-149.69;100.00;58464.25;6238055;22;45400;-89
2021/12/30 16:43:37;;;;;;;;;7.67;3.67;;;;;-149.69;100.00;58464.25;6235114;22;45420;-91
2021/12/30 16:46:03;;;;;;;;;7.67;3.67;;;;;-149.69;100.00;58464.25;6244762;22;45364;-91
2021/12/30 16:48:28;;;;;;;;;3.00;3.00;;;;;-149.69;100.00;58464.25;6235999;22;45621;-92
2021/12/30 16:50:54;;;;;;;;;5.00;2.33;;;;;-149.69;100.00;58464.25;6231885;22;45404;-93
2021/12/30 16:53:19;;;;;;;;;3.00;2.33;;;;;-149.69;100.00;58464.25;6236324;22;45484;-91
2021/12/30 16:55:46;;;;;;;;;4.33;3.00;;;;;-149.69;100.00;58464.25;6238011;22;45398;-90
2021/12/30 16:58:13;;;;;;;;;4.67;3.00;;;;;-149.69;100.00;58464.25;6234784;22;45372;-91
2021/12/30 17:00:38;;;;;;;;;4.67;3.00;;;;;-149.69;100.00;58464.25;6236545;22;45345;-91
2021/12/30 17:03:06;;;;;;;;;5.00;4.00;;;;;-149.69;100.00;58464.25;6238379;22;45360;-91
2021/12/30 17:05:33;;;;;;;;;4.33;2.67;;;;;-149.69;100.00;58464.25;6235738;22;48686;-91
2021/12/30 17:07:59;;;;;;;;;6.00;5.33;;;;;-149.69;100.00;58464.25;6238909;22;45434;-91
2021/12/30 17:10:25;;;;;;;;;4.00;2.00;;;;;-149.69;100.00;58464.25;6236301;22;45309;-90
2021/12/30 17:12:51;;;;;;;;;7.67;6.00;;;;;-149.69;100.00;58464.25;6236492;22;45258;-90
2021/12/30 17:15:17;;;;;;;;;9.00;7.67;;;;;-149.69;100.00;58464.25;6236999;22;47522;-91
2021/12/30 17:17:44;;;;;;;;;6.00;5.00;;;;;-149.69;100.00;58464.25;6236766;22;45641;-90
2021/12/30 17:20:11;;;;;;;;;7.00;5.67;;;;;-149.69;100.00;58464.25;6237273;22;45382;-90
2021/12/30 17:22:37;;;;;;;;;6.67;5.67;;;;;-149.69;100.00;58464.25;6238603;22;45372;-91
2021/12/30 17:25:04;;;;;;;;;9.67;4.00;;;;;-149.69;100.00;58464.25;6238114;22;47478;-91
2021/12/30 17:27:29;;;;;;;;;5.00;4.67;;;;;-149.69;100.00;58464.25;6237828;22;46073;-91
2021/12/30 17:29:55;;;;;;;;;9.00;9.00;;;;;-149.69;100.00;58464.25;6247778;22;45310;-88
2021/12/30 17:32:20;;;;;;;;;10.67;6.33;;;;;-149.69;100.00;58464.25;6241328;22;45255;-91
2021/12/30 17:34:46;;;;;;;;;5.00;5.00;;;;;-149.69;100.00;58464.25;6240769;22;45831;-88
2021/12/30 17:37:13;;;;;;;;;4.00;4.00;;;;;-149.69;100.00;58464.25;6242324;22;45364;-88
2021/12/30 17:39:39;;;;;;;;;5.67;5.00;;;;;-149.69;100.00;58464.25;6239847;22;45416;-88
2021/12/30 17:42:05;;;;;;;;;6.67;5.00;;;;;-149.69;100.00;58464.25;6243018;22;45325;-87
2021/12/30 17:44:31;;;;;;;;;5.00;5.00;;;;;-149.69;100.00;58464.25;6240258;22;47127;-89
2021/12/30 17:46:58;;;;;;;;;6.00;5.00;;;;;-149.69;100.00;58464.25;6240341;22;45388;-88
2021/12/30 17:49:24;;;;;;;;;5.00;4.00;;;;;-149.69;100.00;58464.25;6238464;22;45495;-90
2021/12/30 17:51:50;;;;;;;;;6.00;5.00;;;;;-149.69;100.00;58464.25;6239739;22;45423;-88
2021/12/30 17:54:15;;;;;;;;;10.33;9.33;;;;;-149.69;100.00;58464.25;6240540;22;45645;-89
2021/12/30 17:56:41;;;;;;;;;3.00;2.00;;;;;-149.69;100.00;58464.25;6241697;22;45192;-89
2021/12/30 17:59:07;;;;;;;;;5.67;5.33;;;;;-149.69;100.00;58464.25;6239155;22;45380;-92
2021/12/30 18:01:33;;;;;;;;;9.33;5.33;;;;;-149.69;100.00;58464.25;6238169;22;45532;-89
2021/12/30 18:03:58;;;;;;;;;6.00;4.67;;;;;-149.69;100.00;58464.25;6236607;22;48465;-88
2021/12/30 18:06:24;;;;;;;;;7.67;6.00;;;;;-149.69;100.00;58464.25;6230594;22;45470;-89
2021/12/30 18:08:51;;;;;;;;;15.67;13.33;;;;;-149.69;100.00;58464.25;6235441;22;45405;-89
2021/12/30 18:11:17;;;;;;;;;7.33;6.67;;;;;-149.69;100.00;58464.25;6238403;22;45416;-88
2021/12/30 18:13:42;;;;;;;;;7.67;7.00;;;;;-149.69;100.00;58464.25;6237399;22;45382;-88
2021/12/30 18:16:08;;;;;;;;;9.00;8.33;;;;;-149.69;100.00;58464.25;6236333;22;45380;-88
2021/12/30 18:18:34;;;;;;;;;5.00;5.00;;;;;-149.69;100.00;58464.25;6237478;22;45417;-90
2021/12/30 18:21:00;;;;;;;;;5.00;5.00;;;;;-149.69;100.00;58464.25;6239231;22;45357;-88
2021/12/30 18:23:26;;;;;;;;;5.00;5.00;;;;;-149.69;100.00;58464.25;6235644;22;48561;-89
2021/12/30 18:25:52;;;;;;;;;6.33;5.00;;;;;-149.69;100.00;58464.25;6241347;22;45423;-89
2021/12/30 18:28:18;;;;;;;;;5.00;5.00;;;;;-149.69;100.00;58464.25;6238386;22;45366;-90
2021/12/30 18:30:43;;;;;;;;;3.33;3.33;;;;;-149.69;100.00;58464.25;6239389;22;45304;-91
2021/12/30 18:33:09;;;;;;;;;6.00;5.00;;;;;-149.69;100.00;58464.25;6235568;22;48084;-92
2021/12/30 18:35:35;;;;;;;;;4.33;4.33;;;;;-149.69;100.00;58464.25;6238938;22;45408;-87
2021/12/30 18:38:00;;;;;;;;;10.33;6.33;;;;;-149.69;100.00;58464.25;6238677;22;45411;-92
2021/12/30 18:40:27;;;;;;;;;5.67;5.67;;;;;-149.69;100.00;58464.25;6236650;22;45539;-90
2021/12/30 18:42:54;;;;;;;;;6.67;5.00;;;;;-149.69;100.00;58464.25;6239711;22;46490;-88
2021/12/30 18:45:20;;;;;;;;;5.00;5.00;;;;;-149.69;100.00;58464.25;6239672;22;45452;-88
2021/12/30 18:47:46;;;;;;;;;6.00;5.00;;;;;-149.69;100.00;58464.25;6235734;22;45374;-90
2021/12/30 18:50:14;;;;;;;;;7.00;6.67;;;;;-149.69;100.00;58464.25;6238563;22;45297;-87
2021/12/30 18:52:41;;;;;;;;;13.00;7.67;;;;;-149.69;100.00;58464.25;6238253;22;46239;-87
2021/12/30 18:55:09;;;;;;;;;7.00;6.00;;;;;-149.69;100.00;58464.25;6235644;22;45540;-88
2021/12/30 18:57:36;;;;;;;;;8.33;6.67;;;;;-149.69;100.00;58464.25;6237678;22;45459;-88
2021/12/30 19:00:06;;;;;;;;;8.33;8.33;;;;;-149.69;100.00;58464.25;6239135;22;45298;-89
2021/12/30 19:02:31;;;;;;;;;3.67;3.00;;;;;-149.69;100.00;58464.25;6234578;22;46623;-89
2021/12/30 19:04:57;;;;;;;;;6.00;6.00;;;;;-149.69;100.00;58464.25;6240422;22;45386;-89
2021/12/30 19:07:22;;;;;;;;;8.33;6.33;;;;;-149.69;100.00;58464.25;6241713;22;45278;-90
2021/12/30 19:09:47;;;;;;;;;9.67;9.00;;;;;-149.69;100.00;58464.25;6240434;22;45319;-86
2021/12/30 19:12:13;;;;;;;;;6.33;4.33;;;;;-149.69;100.00;58464.25;6238411;22;45388;-91
2021/12/30 19:14:40;;;;;;;;;6.00;5.67;;;;;-149.69;100.00;58464.25;6237264;22;45440;-90
2021/12/30 19:17:06;;;;;;;;;6.33;6.00;;;;;-149.69;100.00;58464.25;6238618;22;45424;-89
2021/12/30 19:19:31;;;;;;;;;8.00;6.33;;;;;-149.69;100.00;58464.25;6238100;22;45266;-91
2021/12/30 19:21:57;;;;;;;;;5.00;5.00;;;;;-149.69;100.00;58464.25;6239205;22;46008;-90
2021/12/30 19:24:22;;;;;;;;;6.33;6.33;;;;;-149.69;100.00;58464.25;6236051;22;45476;-90
2021/12/30 19:26:48;;;;;;;;;7.00;7.00;;;;;-149.69;100.00;58464.25;6239040;22;45303;-91